sensor_id;sensor_type;location;lat;lon;timestamp;temperature;humidity
15143;DHT22;7672;50.834;6.286;2022-07-10T00:00:11;17.50;99.90
15143;DHT22;7672;50.834;6.286;2022-07-10T00:02:41;17.40;99.90
15143;DHT22;7672;50.834;6.286;2022-07-10T00:05:10;17.40;99.90
15143;DHT22;7672;50.834;6.286;2022-07-10T00:07:46;17.40;99.90
15143;DHT22;7672;50.834;6.286;2022-07-10T00:10:13;17.60;99.90
15143;DHT22;7672;50.834;6.286;2022-07-10T00:12:40;17.30;99.90
15143;DHT22;7672;50.834;6.286;2022-07-10T00:15:08;17.30;99.90
15143;DHT22;7672;50.834;6.286;2022-07-10T00:17:35;17.30;99.90
15143;DHT22;7672;50.834;6.286;2022-07-10T00:20:03;17.20;99.90
15143;DHT22;7672;50.834;6.286;2022-07-10T00:22:30;17.20;99.90
15143;DHT22;7672;50.834;6.286;2022-07-10T00:24:57;17.20;99.90
15143;DHT22;7672;50.834;6.286;2022-07-10T00:27:24;17.20;99.90
15143;DHT22;7672;50.834;6.286;2022-07-10T00:29:50;17.20;99.90
15143;DHT22;7672;50.834;6.286;2022-07-10T00:32:18;17.10;99.90
15143;DHT22;7672;50.834;6.286;2022-07-10T00:34:45;17.10;99.90
15143;DHT22;7672;50.834;6.286;2022-07-10T00:37:12;17.20;99.90
15143;DHT22;7672;50.834;6.286;2022-07-10T00:39:38;17.10;99.90
15143;DHT22;7672;50.834;6.286;2022-07-10T00:42:07;17.00;99.90
15143;DHT22;7672;50.834;6.286;2022-07-10T00:44:34;17.00;99.90
15143;DHT22;7672;50.834;6.286;2022-07-10T00:47:06;17.10;99.90
15143;DHT22;7672;50.834;6.286;2022-07-10T00:49:35;16.90;99.90
15143;DHT22;7672;50.834;6.286;2022-07-10T00:52:05;17.00;99.90
15143;DHT22;7672;50.834;6.286;2022-07-10T00:54:34;16.90;99.90
15143;DHT22;7672;50.834;6.286;2022-07-10T00:57:03;16.80;99.90
15143;DHT22;7672;50.834;6.286;2022-07-10T00:59:32;16.80;99.90
15143;DHT22;7672;50.834;6.286;2022-07-10T01:02:01;16.80;99.90
15143;DHT22;7672;50.834;6.286;2022-07-10T01:04:32;16.80;99.90
15143;DHT22;7672;50.834;6.286;2022-07-10T01:07:00;16.80;99.90
15143;DHT22;7672;50.834;6.286;2022-07-10T01:09:27;16.80;99.90
15143;DHT22;7672;50.834;6.286;2022-07-10T01:11:57;16.70;99.90
15143;DHT22;7672;50.834;6.286;2022-07-10T01:14:31;16.70;99.90
15143;DHT22;7672;50.834;6.286;2022-07-10T01:16:58;16.70;99.90
15143;DHT22;7672;50.834;6.286;2022-07-10T01:19:26;16.70;99.90
15143;DHT22;7672;50.834;6.286;2022-07-10T01:21:53;16.70;99.90
15143;DHT22;7672;50.834;6.286;2022-07-10T01:24:20;16.60;99.90
15143;DHT22;7672;50.834;6.286;2022-07-10T01:26:46;16.60;99.90
15143;DHT22;7672;50.834;6.286;2022-07-10T01:29:13;16.60;99.90
15143;DHT22;7672;50.834;6.286;2022-07-10T01:31:40;16.60;99.90
15143;DHT22;7672;50.834;6.286;2022-07-10T01:34:09;16.60;99.90
15143;DHT22;7672;50.834;6.286;2022-07-10T01:36:36;16.60;99.90
15143;DHT22;7672;50.834;6.286;2022-07-10T01:39:05;16.60;99.90
15143;DHT22;7672;50.834;6.286;2022-07-10T01:41:33;16.60;99.90
15143;DHT22;7672;50.834;6.286;2022-07-10T01:44:00;16.60;99.90
15143;DHT22;7672;50.834;6.286;2022-07-10T01:46:27;16.60;99.90
15143;DHT22;7672;50.834;6.286;2022-07-10T01:48:54;16.70;99.90
15143;DHT22;7672;50.834;6.286;2022-07-10T01:51:21;16.70;99.90
15143;DHT22;7672;50.834;6.286;2022-07-10T01:53:48;16.80;99.90
15143;DHT22;7672;50.834;6.286;2022-07-10T01:56:16;16.70;99.90
15143;DHT22;7672;50.834;6.286;2022-07-10T01:58:43;16.80;99.90
15143;DHT22;7672;50.834;6.286;2022-07-10T02:01:10;16.80;99.90
15143;DHT22;7672;50.834;6.286;2022-07-10T02:03:38;16.80;99.90
15143;DHT22;7672;50.834;6.286;2022-07-10T02:06:24;16.90;99.90
15143;DHT22;7672;50.834;6.286;2022-07-10T02:08:51;16.90;99.90
15143;DHT22;7672;50.834;6.286;2022-07-10T02:11:18;16.90;99.90
15143;DHT22;7672;50.834;6.286;2022-07-10T02:13:46;17.00;99.90
15143;DHT22;7672;50.834;6.286;2022-07-10T02:16:13;17.00;99.90
15143;DHT22;7672;50.834;6.286;2022-07-10T02:18:40;17.00;99.90
15143;DHT22;7672;50.834;6.286;2022-07-10T02:21:08;17.00;99.90
15143;DHT22;7672;50.834;6.286;2022-07-10T02:23:35;17.10;99.90
15143;DHT22;7672;50.834;6.286;2022-07-10T02:26:02;17.10;99.90
15143;DHT22;7672;50.834;6.286;2022-07-10T02:28:29;17.10;99.90
15143;DHT22;7672;50.834;6.286;2022-07-10T02:30:57;17.10;99.90
15143;DHT22;7672;50.834;6.286;2022-07-10T02:33:24;17.10;99.90
15143;DHT22;7672;50.834;6.286;2022-07-10T02:35:51;17.10;99.90
15143;DHT22;7672;50.834;6.286;2022-07-10T02:38:18;17.20;99.90
15143;DHT22;7672;50.834;6.286;2022-07-10T02:40:45;17.30;99.90
15143;DHT22;7672;50.834;6.286;2022-07-10T02:43:12;17.20;99.90
15143;DHT22;7672;50.834;6.286;2022-07-10T02:45:39;17.20;99.90
15143;DHT22;7672;50.834;6.286;2022-07-10T02:48:12;17.20;99.90
15143;DHT22;7672;50.834;6.286;2022-07-10T02:50:38;17.20;99.90
15143;DHT22;7672;50.834;6.286;2022-07-10T02:53:05;17.30;99.90
15143;DHT22;7672;50.834;6.286;2022-07-10T02:55:32;17.30;99.90
15143;DHT22;7672;50.834;6.286;2022-07-10T02:58:00;17.30;99.90
15143;DHT22;7672;50.834;6.286;2022-07-10T03:00:27;17.30;99.90
15143;DHT22;7672;50.834;6.286;2022-07-10T03:02:55;17.20;99.90
15143;DHT22;7672;50.834;6.286;2022-07-10T03:05:22;17.20;99.90
15143;DHT22;7672;50.834;6.286;2022-07-10T03:07:49;17.20;99.90
15143;DHT22;7672;50.834;6.286;2022-07-10T03:10:16;17.20;99.90
15143;DHT22;7672;50.834;6.286;2022-07-10T03:12:43;17.20;99.90
15143;DHT22;7672;50.834;6.286;2022-07-10T03:15:10;17.10;99.90
15143;DHT22;7672;50.834;6.286;2022-07-10T03:17:37;17.10;99.90
15143;DHT22;7672;50.834;6.286;2022-07-10T03:20:05;17.10;99.90
15143;DHT22;7672;50.834;6.286;2022-07-10T03:22:33;17.10;99.90
15143;DHT22;7672;50.834;6.286;2022-07-10T03:25:00;17.10;99.90
15143;DHT22;7672;50.834;6.286;2022-07-10T03:27:27;17.10;99.90
15143;DHT22;7672;50.834;6.286;2022-07-10T03:29:54;17.10;99.90
15143;DHT22;7672;50.834;6.286;2022-07-10T03:32:20;17.10;99.90
15143;DHT22;7672;50.834;6.286;2022-07-10T03:34:47;17.10;99.90
15143;DHT22;7672;50.834;6.286;2022-07-10T03:37:14;17.30;99.90
15143;DHT22;7672;50.834;6.286;2022-07-10T03:39:41;17.10;99.90
15143;DHT22;7672;50.834;6.286;2022-07-10T03:42:08;17.10;99.90
15143;DHT22;7672;50.834;6.286;2022-07-10T03:44:34;17.10;99.90
15143;DHT22;7672;50.834;6.286;2022-07-10T03:47:02;17.10;99.90
15143;DHT22;7672;50.834;6.286;2022-07-10T03:49:30;17.10;99.90
15143;DHT22;7672;50.834;6.286;2022-07-10T03:52:00;17.10;99.90
15143;DHT22;7672;50.834;6.286;2022-07-10T03:54:29;17.10;99.90
15143;DHT22;7672;50.834;6.286;2022-07-10T03:56:57;17.10;99.90
15143;DHT22;7672;50.834;6.286;2022-07-10T03:59:43;17.10;99.90
15143;DHT22;7672;50.834;6.286;2022-07-10T04:02:10;17.10;99.90
15143;DHT22;7672;50.834;6.286;2022-07-10T04:04:37;17.10;99.90
15143;DHT22;7672;50.834;6.286;2022-07-10T04:07:04;17.10;99.90
15143;DHT22;7672;50.834;6.286;2022-07-10T04:09:31;17.20;99.90
15143;DHT22;7672;50.834;6.286;2022-07-10T04:11:58;17.20;99.90
15143;DHT22;7672;50.834;6.286;2022-07-10T04:14:25;17.20;99.90
15143;DHT22;7672;50.834;6.286;2022-07-10T04:16:52;17.20;99.90
15143;DHT22;7672;50.834;6.286;2022-07-10T04:19:18;17.20;99.90
15143;DHT22;7672;50.834;6.286;2022-07-10T04:21:45;17.30;99.90
15143;DHT22;7672;50.834;6.286;2022-07-10T04:24:12;17.50;99.90
15143;DHT22;7672;50.834;6.286;2022-07-10T04:26:39;17.30;99.90
15143;DHT22;7672;50.834;6.286;2022-07-10T04:29:05;17.40;99.90
15143;DHT22;7672;50.834;6.286;2022-07-10T04:31:32;17.40;99.90
15143;DHT22;7672;50.834;6.286;2022-07-10T04:33:59;17.50;99.90
15143;DHT22;7672;50.834;6.286;2022-07-10T04:36:26;17.40;99.90
15143;DHT22;7672;50.834;6.286;2022-07-10T04:38:53;17.50;99.90
15143;DHT22;7672;50.834;6.286;2022-07-10T04:41:20;17.50;99.90
15143;DHT22;7672;50.834;6.286;2022-07-10T04:43:46;17.50;99.90
15143;DHT22;7672;50.834;6.286;2022-07-10T04:46:13;17.50;99.90
15143;DHT22;7672;50.834;6.286;2022-07-10T04:48:40;17.60;99.90
15143;DHT22;7672;50.834;6.286;2022-07-10T04:51:08;17.60;99.90
15143;DHT22;7672;50.834;6.286;2022-07-10T04:53:35;17.70;99.90
15143;DHT22;7672;50.834;6.286;2022-07-10T04:56:01;17.70;99.90
15143;DHT22;7672;50.834;6.286;2022-07-10T04:58:28;17.70;99.90
15143;DHT22;7672;50.834;6.286;2022-07-10T05:00:55;17.80;99.90
15143;DHT22;7672;50.834;6.286;2022-07-10T05:03:22;17.80;99.90
15143;DHT22;7672;50.834;6.286;2022-07-10T05:05:49;17.80;99.90
15143;DHT22;7672;50.834;6.286;2022-07-10T05:08:16;17.90;99.90
15143;DHT22;7672;50.834;6.286;2022-07-10T05:10:43;17.90;99.90
15143;DHT22;7672;50.834;6.286;2022-07-10T05:13:10;17.90;99.90
15143;DHT22;7672;50.834;6.286;2022-07-10T05:15:38;18.00;99.90
15143;DHT22;7672;50.834;6.286;2022-07-10T05:18:05;18.00;99.90
15143;DHT22;7672;50.834;6.286;2022-07-10T05:20:32;18.00;99.90
15143;DHT22;7672;50.834;6.286;2022-07-10T05:23:01;18.10;99.90
15143;DHT22;7672;50.834;6.286;2022-07-10T05:25:28;18.10;99.90
15143;DHT22;7672;50.834;6.286;2022-07-10T05:27:56;18.20;99.90
15143;DHT22;7672;50.834;6.286;2022-07-10T05:30:24;18.30;99.90
15143;DHT22;7672;50.834;6.286;2022-07-10T05:32:50;18.30;99.90
15143;DHT22;7672;50.834;6.286;2022-07-10T05:35:17;18.40;99.90
15143;DHT22;7672;50.834;6.286;2022-07-10T05:37:44;18.40;99.90
15143;DHT22;7672;50.834;6.286;2022-07-10T05:40:11;18.50;99.90
15143;DHT22;7672;50.834;6.286;2022-07-10T05:42:38;18.60;99.90
15143;DHT22;7672;50.834;6.286;2022-07-10T05:45:05;18.70;99.90
15143;DHT22;7672;50.834;6.286;2022-07-10T05:47:32;18.70;99.90
15143;DHT22;7672;50.834;6.286;2022-07-10T05:49:59;18.80;99.90
15143;DHT22;7672;50.834;6.286;2022-07-10T05:52:26;18.90;99.90
15143;DHT22;7672;50.834;6.286;2022-07-10T05:54:58;18.90;99.90
15143;DHT22;7672;50.834;6.286;2022-07-10T05:57:25;19.00;99.90
15143;DHT22;7672;50.834;6.286;2022-07-10T05:59:52;19.10;99.90
15143;DHT22;7672;50.834;6.286;2022-07-10T06:02:18;19.20;99.90
15143;DHT22;7672;50.834;6.286;2022-07-10T06:04:50;19.20;99.90
15143;DHT22;7672;50.834;6.286;2022-07-10T06:07:17;19.30;99.90
15143;DHT22;7672;50.834;6.286;2022-07-10T06:09:45;19.50;99.90
15143;DHT22;7672;50.834;6.286;2022-07-10T06:12:11;19.40;99.90
15143;DHT22;7672;50.834;6.286;2022-07-10T06:14:38;19.50;99.90
15143;DHT22;7672;50.834;6.286;2022-07-10T06:17:05;19.40;99.90
15143;DHT22;7672;50.834;6.286;2022-07-10T06:19:32;19.60;99.90
15143;DHT22;7672;50.834;6.286;2022-07-10T06:21:59;19.60;99.90
15143;DHT22;7672;50.834;6.286;2022-07-10T06:24:44;19.70;99.90
15143;DHT22;7672;50.834;6.286;2022-07-10T06:27:11;19.70;99.90
15143;DHT22;7672;50.834;6.286;2022-07-10T06:29:38;19.70;99.90
15143;DHT22;7672;50.834;6.286;2022-07-10T06:32:05;19.80;99.90
15143;DHT22;7672;50.834;6.286;2022-07-10T06:34:33;19.80;99.90
15143;DHT22;7672;50.834;6.286;2022-07-10T06:37:00;19.80;99.90
15143;DHT22;7672;50.834;6.286;2022-07-10T06:39:31;19.90;99.90
15143;DHT22;7672;50.834;6.286;2022-07-10T06:42:05;19.90;99.90
15143;DHT22;7672;50.834;6.286;2022-07-10T06:44:33;19.90;99.90
15143;DHT22;7672;50.834;6.286;2022-07-10T06:47:00;19.90;99.90
15143;DHT22;7672;50.834;6.286;2022-07-10T06:49:47;19.90;99.90
15143;DHT22;7672;50.834;6.286;2022-07-10T06:52:16;20.00;99.90
15143;DHT22;7672;50.834;6.286;2022-07-10T06:54:43;20.00;99.90
15143;DHT22;7672;50.834;6.286;2022-07-10T06:57:11;20.00;99.90
15143;DHT22;7672;50.834;6.286;2022-07-10T06:59:38;20.10;99.90
15143;DHT22;7672;50.834;6.286;2022-07-10T07:02:05;20.10;99.90
15143;DHT22;7672;50.834;6.286;2022-07-10T07:04:32;20.10;99.90
15143;DHT22;7672;50.834;6.286;2022-07-10T07:06:59;20.10;99.90
15143;DHT22;7672;50.834;6.286;2022-07-10T07:09:28;20.10;99.90
15143;DHT22;7672;50.834;6.286;2022-07-10T07:11:55;20.10;99.90
15143;DHT22;7672;50.834;6.286;2022-07-10T07:14:21;20.10;99.90
15143;DHT22;7672;50.834;6.286;2022-07-10T07:16:48;20.20;99.90
15143;DHT22;7672;50.834;6.286;2022-07-10T07:19:25;20.20;99.90
15143;DHT22;7672;50.834;6.286;2022-07-10T07:21:59;20.30;99.90
15143;DHT22;7672;50.834;6.286;2022-07-10T07:24:45;20.30;99.90
15143;DHT22;7672;50.834;6.286;2022-07-10T07:27:12;20.30;99.90
15143;DHT22;7672;50.834;6.286;2022-07-10T07:29:39;20.30;99.90
15143;DHT22;7672;50.834;6.286;2022-07-10T07:32:06;20.30;99.90
15143;DHT22;7672;50.834;6.286;2022-07-10T07:34:33;20.40;99.90
15143;DHT22;7672;50.834;6.286;2022-07-10T07:37:00;20.40;99.90
15143;DHT22;7672;50.834;6.286;2022-07-10T07:39:26;20.40;99.90
15143;DHT22;7672;50.834;6.286;2022-07-10T07:41:53;20.80;99.90
15143;DHT22;7672;50.834;6.286;2022-07-10T07:44:20;20.50;99.90
15143;DHT22;7672;50.834;6.286;2022-07-10T07:46:54;20.60;99.90
15143;DHT22;7672;50.834;6.286;2022-07-10T07:49:21;20.60;99.90
15143;DHT22;7672;50.834;6.286;2022-07-10T07:51:48;20.80;99.90
15143;DHT22;7672;50.834;6.286;2022-07-10T07:54:15;20.80;99.90
15143;DHT22;7672;50.834;6.286;2022-07-10T07:56:42;20.90;99.90
15143;DHT22;7672;50.834;6.286;2022-07-10T07:59:09;21.00;99.90
15143;DHT22;7672;50.834;6.286;2022-07-10T08:01:37;21.20;99.90
15143;DHT22;7672;50.834;6.286;2022-07-10T08:04:04;21.30;99.90
15143;DHT22;7672;50.834;6.286;2022-07-10T08:06:35;21.40;99.90
15143;DHT22;7672;50.834;6.286;2022-07-10T08:09:03;21.60;99.90
15143;DHT22;7672;50.834;6.286;2022-07-10T08:11:30;21.80;99.90
15143;DHT22;7672;50.834;6.286;2022-07-10T08:13:57;22.00;99.90
15143;DHT22;7672;50.834;6.286;2022-07-10T08:16:24;21.90;99.90
15143;DHT22;7672;50.834;6.286;2022-07-10T08:18:51;22.10;99.90
15143;DHT22;7672;50.834;6.286;2022-07-10T08:21:18;22.20;99.90
15143;DHT22;7672;50.834;6.286;2022-07-10T08:23:45;22.30;99.90
15143;DHT22;7672;50.834;6.286;2022-07-10T08:26:12;22.50;99.90
15143;DHT22;7672;50.834;6.286;2022-07-10T08:28:39;22.60;99.90
15143;DHT22;7672;50.834;6.286;2022-07-10T08:31:06;22.80;99.90
15143;DHT22;7672;50.834;6.286;2022-07-10T08:33:41;23.00;99.90
15143;DHT22;7672;50.834;6.286;2022-07-10T08:36:08;23.20;99.90
15143;DHT22;7672;50.834;6.286;2022-07-10T08:38:54;23.40;99.90
15143;DHT22;7672;50.834;6.286;2022-07-10T08:41:25;23.60;99.90
15143;DHT22;7672;50.834;6.286;2022-07-10T08:43:52;23.70;99.90
15143;DHT22;7672;50.834;6.286;2022-07-10T08:46:20;23.80;99.90
15143;DHT22;7672;50.834;6.286;2022-07-10T08:48:48;23.90;99.90
15143;DHT22;7672;50.834;6.286;2022-07-10T08:51:30;23.90;99.90
15143;DHT22;7672;50.834;6.286;2022-07-10T08:54:04;24.00;99.90
15143;DHT22;7672;50.834;6.286;2022-07-10T08:56:33;24.10;99.90
15143;DHT22;7672;50.834;6.286;2022-07-10T08:59:02;24.20;99.90
15143;DHT22;7672;50.834;6.286;2022-07-10T09:01:32;24.30;99.90
15143;DHT22;7672;50.834;6.286;2022-07-10T09:03:59;24.50;99.90
15143;DHT22;7672;50.834;6.286;2022-07-10T09:06:30;24.70;99.90
15143;DHT22;7672;50.834;6.286;2022-07-10T09:09:02;25.00;99.90
15143;DHT22;7672;50.834;6.286;2022-07-10T09:11:32;25.30;99.90
15143;DHT22;7672;50.834;6.286;2022-07-10T09:14:01;25.70;99.90
15143;DHT22;7672;50.834;6.286;2022-07-10T09:16:32;26.20;99.90
15143;DHT22;7672;50.834;6.286;2022-07-10T09:21:49;27.20;99.90
15143;DHT22;7672;50.834;6.286;2022-07-10T09:24:18;27.60;99.90
15143;DHT22;7672;50.834;6.286;2022-07-10T09:27:01;28.00;99.90
15143;DHT22;7672;50.834;6.286;2022-07-10T09:29:31;28.30;99.60
15143;DHT22;7672;50.834;6.286;2022-07-10T09:32:14;28.60;98.20
15143;DHT22;7672;50.834;6.286;2022-07-10T09:34:50;28.80;97.20
15143;DHT22;7672;50.834;6.286;2022-07-10T09:37:41;28.80;96.10
15143;DHT22;7672;50.834;6.286;2022-07-10T09:40:09;28.80;94.60
15143;DHT22;7672;50.834;6.286;2022-07-10T09:42:41;28.60;95.00
15143;DHT22;7672;50.834;6.286;2022-07-10T09:45:18;28.50;94.90
15143;DHT22;7672;50.834;6.286;2022-07-10T09:47:59;28.20;94.60
15143;DHT22;7672;50.834;6.286;2022-07-10T09:50:34;28.00;94.80
15143;DHT22;7672;50.834;6.286;2022-07-10T09:53:04;27.80;94.90
15143;DHT22;7672;50.834;6.286;2022-07-10T09:55:34;27.60;94.80
15143;DHT22;7672;50.834;6.286;2022-07-10T09:58:06;27.30;95.20
15143;DHT22;7672;50.834;6.286;2022-07-10T10:00:36;27.10;95.20
15143;DHT22;7672;50.834;6.286;2022-07-10T10:03:06;26.80;95.40
15143;DHT22;7672;50.834;6.286;2022-07-10T10:05:52;26.60;95.40
15143;DHT22;7672;50.834;6.286;2022-07-10T10:11:25;26.00;96.50
15143;DHT22;7672;50.834;6.286;2022-07-10T10:13:53;25.80;96.70
15143;DHT22;7672;50.834;6.286;2022-07-10T10:16:20;25.60;97.00
15143;DHT22;7672;50.834;6.286;2022-07-10T10:18:50;25.50;97.20
15143;DHT22;7672;50.834;6.286;2022-07-10T10:21:37;25.30;97.80
15143;DHT22;7672;50.834;6.286;2022-07-10T10:24:05;25.20;99.00
15143;DHT22;7672;50.834;6.286;2022-07-10T10:26:33;25.00;99.10
15143;DHT22;7672;50.834;6.286;2022-07-10T10:29:01;24.90;99.30
15143;DHT22;7672;50.834;6.286;2022-07-10T10:31:31;24.80;99.30
15143;DHT22;7672;50.834;6.286;2022-07-10T10:33:59;24.80;99.60
15143;DHT22;7672;50.834;6.286;2022-07-10T10:39:09;24.60;99.90
15143;DHT22;7672;50.834;6.286;2022-07-10T10:41:38;24.60;99.90
15143;DHT22;7672;50.834;6.286;2022-07-10T10:46:52;24.70;99.90
15143;DHT22;7672;50.834;6.286;2022-07-10T10:49:24;24.50;99.90
15143;DHT22;7672;50.834;6.286;2022-07-10T10:52:01;24.50;99.90
15143;DHT22;7672;50.834;6.286;2022-07-10T10:54:31;24.40;99.90
15143;DHT22;7672;50.834;6.286;2022-07-10T10:57:18;24.50;99.90
15143;DHT22;7672;50.834;6.286;2022-07-10T10:59:55;24.50;99.90
15143;DHT22;7672;50.834;6.286;2022-07-10T11:02:26;24.50;99.90
15143;DHT22;7672;50.834;6.286;2022-07-10T11:08:37;24.90;99.90
15143;DHT22;7672;50.834;6.286;2022-07-10T11:13:58;25.60;99.90
15143;DHT22;7672;50.834;6.286;2022-07-10T11:16:25;26.00;99.90
15143;DHT22;7672;50.834;6.286;2022-07-10T11:18:53;26.30;99.90
15143;DHT22;7672;50.834;6.286;2022-07-10T11:21:23;26.70;99.90
15143;DHT22;7672;50.834;6.286;2022-07-10T11:23:59;26.90;99.70
15143;DHT22;7672;50.834;6.286;2022-07-10T11:29:09;27.60;99.20
15143;DHT22;7672;50.834;6.286;2022-07-10T11:31:36;27.80;98.00
15143;DHT22;7672;50.834;6.286;2022-07-10T11:34:07;28.10;97.60
15143;DHT22;7672;50.834;6.286;2022-07-10T11:36:34;28.20;97.40
15143;DHT22;7672;50.834;6.286;2022-07-10T11:39:07;28.40;97.20
15143;DHT22;7672;50.834;6.286;2022-07-10T11:41:42;28.50;96.60
15143;DHT22;7672;50.834;6.286;2022-07-10T11:44:17;28.70;95.50
15143;DHT22;7672;50.834;6.286;2022-07-10T11:46:46;28.70;93.70
15143;DHT22;7672;50.834;6.286;2022-07-10T11:49:16;28.70;94.30
15143;DHT22;7672;50.834;6.286;2022-07-10T11:51:44;28.70;94.20
15143;DHT22;7672;50.834;6.286;2022-07-10T11:54:16;28.60;94.40
15143;DHT22;7672;50.834;6.286;2022-07-10T11:56:50;28.60;94.50
15143;DHT22;7672;50.834;6.286;2022-07-10T11:59:25;28.60;94.20
15143;DHT22;7672;50.834;6.286;2022-07-10T12:01:55;28.50;93.80
15143;DHT22;7672;50.834;6.286;2022-07-10T12:04:23;28.50;94.40
15143;DHT22;7672;50.834;6.286;2022-07-10T12:06:53;28.50;94.10
15143;DHT22;7672;50.834;6.286;2022-07-10T12:09:23;28.50;93.80
15143;DHT22;7672;50.834;6.286;2022-07-10T12:12:02;28.50;94.00
15143;DHT22;7672;50.834;6.286;2022-07-10T12:14:31;28.50;94.10
15143;DHT22;7672;50.834;6.286;2022-07-10T12:16:59;28.50;94.10
15143;DHT22;7672;50.834;6.286;2022-07-10T12:19:31;28.50;94.00
15143;DHT22;7672;50.834;6.286;2022-07-10T12:22:05;28.40;93.50
15143;DHT22;7672;50.834;6.286;2022-07-10T12:24:32;28.40;93.80
15143;DHT22;7672;50.834;6.286;2022-07-10T12:26:59;28.40;94.40
15143;DHT22;7672;50.834;6.286;2022-07-10T12:29:27;28.40;94.20
15143;DHT22;7672;50.834;6.286;2022-07-10T12:31:58;28.30;94.60
15143;DHT22;7672;50.834;6.286;2022-07-10T12:34:35;28.40;94.10
15143;DHT22;7672;50.834;6.286;2022-07-10T12:37:09;28.40;93.40
15143;DHT22;7672;50.834;6.286;2022-07-10T12:39:45;28.40;94.10
15143;DHT22;7672;50.834;6.286;2022-07-10T12:42:28;28.30;93.60
15143;DHT22;7672;50.834;6.286;2022-07-10T12:45:12;28.30;93.90
15143;DHT22;7672;50.834;6.286;2022-07-10T12:47:47;28.20;93.50
15143;DHT22;7672;50.834;6.286;2022-07-10T12:50:16;28.10;93.60
15143;DHT22;7672;50.834;6.286;2022-07-10T12:52:45;28.10;93.60
15143;DHT22;7672;50.834;6.286;2022-07-10T12:55:16;27.90;93.80
15143;DHT22;7672;50.834;6.286;2022-07-10T13:00:31;27.70;94.30
15143;DHT22;7672;50.834;6.286;2022-07-10T13:03:08;27.60;94.50
15143;DHT22;7672;50.834;6.286;2022-07-10T13:05:38;27.50;94.80
15143;DHT22;7672;50.834;6.286;2022-07-10T13:08:22;27.50;95.10
15143;DHT22;7672;50.834;6.286;2022-07-10T13:10:52;27.40;94.70
15143;DHT22;7672;50.834;6.286;2022-07-10T13:13:21;27.40;94.80
15143;DHT22;7672;50.834;6.286;2022-07-10T13:15:48;27.50;94.60
15143;DHT22;7672;50.834;6.286;2022-07-10T13:18:25;27.40;95.00
15143;DHT22;7672;50.834;6.286;2022-07-10T13:20:57;27.40;94.90
15143;DHT22;7672;50.834;6.286;2022-07-10T13:23:28;27.50;95.00
15143;DHT22;7672;50.834;6.286;2022-07-10T13:25:56;27.50;94.80
15143;DHT22;7672;50.834;6.286;2022-07-10T13:28:25;27.50;94.20
15143;DHT22;7672;50.834;6.286;2022-07-10T13:30:52;27.40;94.50
15143;DHT22;7672;50.834;6.286;2022-07-10T13:33:19;27.40;95.20
15143;DHT22;7672;50.834;6.286;2022-07-10T13:35:46;27.30;95.00
15143;DHT22;7672;50.834;6.286;2022-07-10T13:38:14;27.30;94.80
15143;DHT22;7672;50.834;6.286;2022-07-10T13:40:44;27.30;95.20
15143;DHT22;7672;50.834;6.286;2022-07-10T13:43:13;27.30;95.50
15143;DHT22;7672;50.834;6.286;2022-07-10T13:45:42;27.40;95.20
15143;DHT22;7672;50.834;6.286;2022-07-10T13:48:11;27.50;95.40
15143;DHT22;7672;50.834;6.286;2022-07-10T13:50:39;27.60;94.70
15143;DHT22;7672;50.834;6.286;2022-07-10T13:53:07;27.70;94.60
15143;DHT22;7672;50.834;6.286;2022-07-10T13:55:35;27.80;94.90
15143;DHT22;7672;50.834;6.286;2022-07-10T13:58:02;27.90;94.30
15143;DHT22;7672;50.834;6.286;2022-07-10T14:00:29;27.90;93.70
15143;DHT22;7672;50.834;6.286;2022-07-10T14:02:56;27.90;93.90
15143;DHT22;7672;50.834;6.286;2022-07-10T14:05:24;27.80;94.00
15143;DHT22;7672;50.834;6.286;2022-07-10T14:07:51;27.70;93.80
15143;DHT22;7672;50.834;6.286;2022-07-10T14:10:18;27.60;94.10
15143;DHT22;7672;50.834;6.286;2022-07-10T14:12:45;27.50;93.70
15143;DHT22;7672;50.834;6.286;2022-07-10T14:15:12;27.40;94.10
15143;DHT22;7672;50.834;6.286;2022-07-10T14:17:39;27.30;94.30
15143;DHT22;7672;50.834;6.286;2022-07-10T14:20:06;27.20;94.40
15143;DHT22;7672;50.834;6.286;2022-07-10T14:22:34;27.20;94.10
15143;DHT22;7672;50.834;6.286;2022-07-10T14:25:02;27.20;94.20
15143;DHT22;7672;50.834;6.286;2022-07-10T14:27:29;27.20;94.50
15143;DHT22;7672;50.834;6.286;2022-07-10T14:29:58;27.10;94.20
15143;DHT22;7672;50.834;6.286;2022-07-10T14:32:25;27.10;94.00
15143;DHT22;7672;50.834;6.286;2022-07-10T14:34:52;27.10;94.80
15143;DHT22;7672;50.834;6.286;2022-07-10T14:37:19;27.00;94.80
15143;DHT22;7672;50.834;6.286;2022-07-10T14:39:46;27.00;95.20
15143;DHT22;7672;50.834;6.286;2022-07-10T14:42:13;27.00;94.90
15143;DHT22;7672;50.834;6.286;2022-07-10T14:44:40;27.00;94.50
15143;DHT22;7672;50.834;6.286;2022-07-10T14:47:06;27.00;94.90
15143;DHT22;7672;50.834;6.286;2022-07-10T14:49:33;27.00;95.20
15143;DHT22;7672;50.834;6.286;2022-07-10T14:52:00;27.00;95.50
15143;DHT22;7672;50.834;6.286;2022-07-10T14:54:27;27.00;95.90
15143;DHT22;7672;50.834;6.286;2022-07-10T14:56:54;27.00;95.50
15143;DHT22;7672;50.834;6.286;2022-07-10T14:59:28;27.10;95.30
15143;DHT22;7672;50.834;6.286;2022-07-10T15:01:55;27.10;95.80
15143;DHT22;7672;50.834;6.286;2022-07-10T15:04:22;27.10;95.60
15143;DHT22;7672;50.834;6.286;2022-07-10T15:06:49;27.30;96.20
15143;DHT22;7672;50.834;6.286;2022-07-10T15:09:15;27.30;95.70
15143;DHT22;7672;50.834;6.286;2022-07-10T15:11:42;27.30;95.80
15143;DHT22;7672;50.834;6.286;2022-07-10T15:14:09;27.40;95.20
15143;DHT22;7672;50.834;6.286;2022-07-10T15:16:36;27.50;95.10
15143;DHT22;7672;50.834;6.286;2022-07-10T15:19:03;27.50;95.00
15143;DHT22;7672;50.834;6.286;2022-07-10T15:21:30;27.60;94.70
15143;DHT22;7672;50.834;6.286;2022-07-10T15:23:57;27.60;94.60
15143;DHT22;7672;50.834;6.286;2022-07-10T15:26:24;27.50;95.00
15143;DHT22;7672;50.834;6.286;2022-07-10T15:28:50;27.50;95.10
15143;DHT22;7672;50.834;6.286;2022-07-10T15:31:17;27.50;94.90
15143;DHT22;7672;50.834;6.286;2022-07-10T15:33:44;27.40;94.90
15143;DHT22;7672;50.834;6.286;2022-07-10T15:36:12;27.40;94.90
15143;DHT22;7672;50.834;6.286;2022-07-10T15:38:40;27.40;94.70
15143;DHT22;7672;50.834;6.286;2022-07-10T15:41:08;27.40;95.50
15143;DHT22;7672;50.834;6.286;2022-07-10T15:43:34;27.40;95.50
15143;DHT22;7672;50.834;6.286;2022-07-10T15:46:01;27.40;94.80
15143;DHT22;7672;50.834;6.286;2022-07-10T15:48:28;27.40;95.30
15143;DHT22;7672;50.834;6.286;2022-07-10T15:50:55;27.40;95.40
15143;DHT22;7672;50.834;6.286;2022-07-10T15:53:22;27.40;94.80
15143;DHT22;7672;50.834;6.286;2022-07-10T15:55:49;27.30;94.90
15143;DHT22;7672;50.834;6.286;2022-07-10T15:58:16;27.30;95.00
15143;DHT22;7672;50.834;6.286;2022-07-10T16:00:43;27.20;95.00
15143;DHT22;7672;50.834;6.286;2022-07-10T16:03:10;27.20;95.10
15143;DHT22;7672;50.834;6.286;2022-07-10T16:05:37;27.00;94.90
15143;DHT22;7672;50.834;6.286;2022-07-10T16:08:04;26.90;95.30
15143;DHT22;7672;50.834;6.286;2022-07-10T16:10:32;26.90;95.20
15143;DHT22;7672;50.834;6.286;2022-07-10T16:12:59;26.80;95.20
15143;DHT22;7672;50.834;6.286;2022-07-10T16:15:25;26.70;95.60
15143;DHT22;7672;50.834;6.286;2022-07-10T16:17:53;26.60;95.70